EGNX Airport Information

Runway Information
Runway 09 Length 9491 ft width 148 ft Elevation 306 ft Threshold 590 ft Heading 88
Runway 27 Length 9491 ft Width 148 ft Elevation 282 ft Threshold 426 ft Heading 268
Airport Frequencies
Type APP Name APP Frequency 134.175 MHZ
Type ATIS Name ATIS Frequency 128.225 MHZ
Type GND Name GND Frequency 121.9 MHZ
Type TWR Name TWR Frequency 124 MHZ
Type Fire servi Name Frequency 121.6 MHZ
Airport Navaids
Airport Weather Information & NOTAM
ADDS - METARS form results

(1705 UTC 05 February 2023)
Data provider http://aviationweather.gov/metar/data/
 
METAR text: EGNX 051650Z 17003KT 150V210 CAVOK 06/M01 Q1045
Conditions at: EGNX (EAST MIDLANDS , GB) observed 1650 UTC 05 February 2023
Temperature: 6.0°C (43°F)
Dewpoint: -1.0°C (30°F) [RH = 61%]
Pressure (altimeter): 30.86 inches Hg (1045.0 mb)
Winds: from the S (170 degrees) at 3 MPH (3 knots; 1.5 m/s)
Visibility: 6 or more miles (10+ km)
Ceiling: ceiling and visibility are OK
Clouds: unknown
Weather: no significant weather observed at this time

METAR text: EGNX 051620Z 11002KT CAVOK 06/M02 Q1045
Conditions at: EGNX (EAST MIDLANDS , GB) observed 1620 UTC 05 February 2023
Temperature: 6.0°C (43°F)
Dewpoint: -2.0°C (28°F) [RH = 56%]
Pressure (altimeter): 30.86 inches Hg (1045.0 mb)
Winds: from the ESE (110 degrees) at 2 MPH (2 knots; 1.0 m/s)
Visibility: 6 or more miles (10+ km)
Ceiling: ceiling and visibility are OK
Clouds: unknown
Weather: no significant weather observed at this time

Forecast for: EGNX (EAST MIDLANDS , GB)
Text: TAF EGNX 051055Z 0512/0612 VRB03KT CAVOK
Forecast period: 1200 UTC 05 February 2023 to 1200 UTC 06 February 2023
Forecast type: FROM: standard forecast or significant change
Winds: variable direction winds at 3 MPH (3 knots; 1.5 m/s)
Visibility: 6 or more miles (10+ km)
Ceiling: unknown
Clouds: missing
Weather: NSW  (no significant weather)
Text: PROB30 0519/0524 8000
Forecast period: 1900 UTC 05 February 2023 to 0000 UTC 06 February 2023
Forecast type: PROBABLE: 30 percent likelihood of the following during this time
Visibility: 5 miles (8 km)
Ceiling: unknown
Clouds: missing
Weather: no significant weather forecast for this period
Text: TEMPO 0600/0610 6000
Forecast period: 0000 to 1000 UTC 06 February 2023
Forecast type: TEMPORARY: The following changes expected for less than half the time period
Visibility: 4 miles (6 km)
Ceiling: unknown
Clouds: missing
Weather: no significant weather forecast for this period
Text: PROB30 0603/0610 4000 BR
Forecast period: 0300 to 1000 UTC 06 February 2023
Forecast type: PROBABLE: 30 percent likelihood of the following during this time
Visibility: 2.49 miles (4.01 km)
Ceiling: unknown
Clouds: missing
Weather: BR  (mist)